createdAt,value
2022-09-06T00:00:31.604Z,7.90
2022-09-06T00:03:00.014Z,7.75
2022-09-06T00:05:33.371Z,9.93
2022-09-06T00:08:02.366Z,10.27
2022-09-06T00:10:31.992Z,6.72
2022-09-06T00:13:02.744Z,6.40
2022-09-06T00:15:31.760Z,11.18
2022-09-06T00:18:01.162Z,10.68
2022-09-06T00:20:31.722Z,9.63
2022-09-06T00:23:00.801Z,8.48
2022-09-06T00:25:29.919Z,7.63
2022-09-06T00:27:59.525Z,8.93
2022-09-06T00:30:28.781Z,14.77
2022-09-06T00:32:57.766Z,7.95
2022-09-06T00:35:27.103Z,8.27
2022-09-06T00:37:59.777Z,8.43
2022-09-06T00:40:29.524Z,11.10
2022-09-06T00:42:58.824Z,11.52
2022-09-06T00:45:30.579Z,10.95
2022-09-06T00:48:00.871Z,10.25
2022-09-06T00:50:30.950Z,10.18
2022-09-06T00:53:01.098Z,6.22
2022-09-06T00:55:29.835Z,8.70
2022-09-06T00:57:58.295Z,9.65
2022-09-06T01:00:26.627Z,8.15
2022-09-06T01:02:55.803Z,7.32
2022-09-06T01:05:27.283Z,10.60
2022-09-06T01:08:06.770Z,8.80
2022-09-06T01:10:48.684Z,7.25
2022-09-06T01:13:34.602Z,10.70
2022-09-06T01:16:12.996Z,7.10
2022-09-06T01:19:00.843Z,7.85
2022-09-06T01:21:43.351Z,7.57
2022-09-06T01:24:44.579Z,7.00
2022-09-06T01:28:00.583Z,8.05
2022-09-06T01:30:33.653Z,11.13
2022-09-06T01:33:09.275Z,7.78
2022-09-06T01:35:42.492Z,6.07
2022-09-06T01:38:11.476Z,7.85
2022-09-06T01:40:39.825Z,6.93
2022-09-06T01:43:13.013Z,5.47
2022-09-06T01:45:55.561Z,7.10
2022-09-06T01:48:36.475Z,8.07
2022-09-06T01:51:15.250Z,7.97
2022-09-06T01:54:02.381Z,5.63
2022-09-06T01:56:41.183Z,7.78
2022-09-06T01:59:29.406Z,10.65
2022-09-06T02:02:07.177Z,11.23
2022-09-06T02:04:44.822Z,8.20
2022-09-06T02:07:20.190Z,12.43
2022-09-06T02:09:55.021Z,10.93
2022-09-06T02:12:26.611Z,10.40
2022-09-06T02:14:59.969Z,6.00
2022-09-06T02:17:32.992Z,12.00
2022-09-06T02:20:06.110Z,6.82
2022-09-06T02:22:40.832Z,7.60
2022-09-06T02:25:12.350Z,6.80
2022-09-06T02:27:41.281Z,8.85
2022-09-06T02:30:10.547Z,9.55
2022-09-06T02:32:45.761Z,9.10
2022-09-06T02:35:17.158Z,8.82
2022-09-06T02:37:46.311Z,6.38
2022-09-06T02:40:14.783Z,7.28
2022-09-06T02:42:43.118Z,7.32
2022-09-06T02:45:11.917Z,11.20
2022-09-06T02:47:41.693Z,7.38
2022-09-06T02:50:10.296Z,7.55
2022-09-06T02:52:38.579Z,9.60
2022-09-06T02:55:08.204Z,6.18
2022-09-06T02:57:36.609Z,6.95
2022-09-06T03:00:06.079Z,6.72
2022-09-06T03:02:34.503Z,7.75
2022-09-06T03:05:04.448Z,8.02
2022-09-06T03:07:32.763Z,7.18
2022-09-06T03:10:01.112Z,11.82
2022-09-06T03:12:29.537Z,7.20
2022-09-06T03:14:58.015Z,6.45
2022-09-06T03:17:26.378Z,7.00
2022-09-06T03:19:54.751Z,10.25
2022-09-06T03:22:24.604Z,10.38
2022-09-06T03:24:52.938Z,6.18
2022-09-06T03:27:21.610Z,9.05
2022-09-06T03:29:50.057Z,8.13
2022-09-06T03:32:18.420Z,11.43
2022-09-06T03:34:46.752Z,5.38
2022-09-06T03:37:15.196Z,11.73
2022-09-06T03:39:44.890Z,7.80
2022-09-06T03:42:13.319Z,8.32
2022-09-06T03:44:41.722Z,6.40
2022-09-06T03:47:10.101Z,7.60
2022-09-06T03:49:38.410Z,10.13
2022-09-06T03:52:06.843Z,7.53
2022-09-06T03:54:35.208Z,9.40
2022-09-06T03:57:05.347Z,10.73
2022-09-06T03:59:33.942Z,9.57
2022-09-06T04:02:02.408Z,7.50
2022-09-06T04:04:30.907Z,7.25
2022-09-06T04:06:59.251Z,9.75
2022-09-06T04:09:27.548Z,8.52
2022-09-06T04:11:55.944Z,11.75
2022-09-06T04:14:25.720Z,8.75
2022-09-06T04:16:54.167Z,8.70
2022-09-06T04:19:22.694Z,8.70
2022-09-06T04:21:51.309Z,7.57
2022-09-06T04:24:19.755Z,10.95
2022-09-06T04:26:48.037Z,10.93
2022-09-06T04:29:16.392Z,14.20
2022-09-06T04:31:46.123Z,10.20
2022-09-06T04:34:16.511Z,8.38
2022-09-06T04:36:48.334Z,7.05
2022-09-06T04:39:17.004Z,13.95
2022-09-06T04:41:45.414Z,12.63
2022-09-06T04:44:13.885Z,11.25
2022-09-06T04:46:43.704Z,8.88
2022-09-06T04:49:13.609Z,10.38
2022-09-06T04:51:41.891Z,12.95
2022-09-06T04:54:10.342Z,12.60
2022-09-06T04:56:38.764Z,12.90
2022-09-06T04:59:07.198Z,10.63
2022-09-06T05:01:35.689Z,13.23
2022-09-06T05:04:04.420Z,11.52
2022-09-06T05:06:34.141Z,11.15
2022-09-06T05:09:02.453Z,12.77
2022-09-06T05:11:30.744Z,12.50
2022-09-06T05:13:59.124Z,11.50
2022-09-06T05:16:27.519Z,10.43
2022-09-06T05:18:55.915Z,11.85
2022-09-06T05:21:24.901Z,14.10
2022-09-06T05:23:58.477Z,11.90
2022-09-06T05:26:27.280Z,13.38
2022-09-06T05:28:55.625Z,13.05
2022-09-06T05:31:29.115Z,12.18
2022-09-06T05:33:58.683Z,12.85
2022-09-06T05:36:28.071Z,10.80
2022-09-06T05:38:58.912Z,13.38
2022-09-06T05:41:27.989Z,13.20
2022-09-06T05:43:56.539Z,12.55
2022-09-06T05:46:25.049Z,13.15
2022-09-06T05:48:54.524Z,10.40
2022-09-06T05:51:22.938Z,14.98
2022-09-06T05:53:51.976Z,11.65
2022-09-06T05:56:23.103Z,10.25
2022-09-06T05:58:51.841Z,12.18
2022-09-06T06:01:22.177Z,13.20
2022-09-06T06:03:54.633Z,9.32
2022-09-06T06:06:23.993Z,12.77
2022-09-06T06:08:52.671Z,12.20
2022-09-06T06:11:22.638Z,10.23
2022-09-06T06:13:50.993Z,11.43
2022-09-06T06:16:22.115Z,11.13
2022-09-06T06:18:52.439Z,9.43
2022-09-06T06:21:23.892Z,8.85
2022-09-06T06:23:53.819Z,9.55
2022-09-06T06:26:24.625Z,7.88
2022-09-06T06:28:53.493Z,7.82
2022-09-06T06:31:22.857Z,8.77
2022-09-06T06:33:52.185Z,7.88
2022-09-06T06:36:22.793Z,9.88
2022-09-06T06:38:54.169Z,9.65
2022-09-06T06:41:25.966Z,10.48
2022-09-06T06:43:54.844Z,9.70
2022-09-06T06:46:25.630Z,9.77
2022-09-06T06:48:55.242Z,9.73
2022-09-06T06:51:25.723Z,9.52
2022-09-06T06:53:54.328Z,12.73
2022-09-06T06:56:26.273Z,7.65
2022-09-06T06:58:56.412Z,6.85
2022-09-06T07:01:26.374Z,9.32
2022-09-06T07:03:55.654Z,7.68
2022-09-06T07:09:13.395Z,7.95
2022-09-06T07:11:43.469Z,9.10
2022-09-06T07:14:11.805Z,9.25
2022-09-06T07:16:40.233Z,7.40
2022-09-06T07:19:09.327Z,5.53
2022-09-06T07:22:02.781Z,5.57
2022-09-06T07:24:33.657Z,6.40
2022-09-06T07:29:51.753Z,6.88
2022-09-06T07:32:20.158Z,5.57
2022-09-06T07:34:48.556Z,5.80
2022-09-06T07:37:17.116Z,8.40
2022-09-06T07:39:45.511Z,8.88
2022-09-06T07:42:16.330Z,10.40
2022-09-06T07:44:44.720Z,8.95
2022-09-06T07:53:10.949Z,6.35
2022-09-06T07:55:41.218Z,7.45
2022-09-06T07:58:11.138Z,3.78
2022-09-06T08:00:41.334Z,6.45
2022-09-06T08:03:10.034Z,8.32
2022-09-06T08:11:15.381Z,6.03
2022-09-06T08:13:45.827Z,4.80
2022-09-06T08:16:17.116Z,4.53
2022-09-06T08:18:45.729Z,5.22
2022-09-06T08:21:15.852Z,8.82
2022-09-06T08:23:47.409Z,6.32
2022-09-06T08:26:15.881Z,8.30
2022-09-06T08:28:46.226Z,5.35
2022-09-06T08:31:16.229Z,3.83
2022-09-06T08:33:47.756Z,4.60
2022-09-06T08:36:16.816Z,5.55
2022-09-06T08:38:45.841Z,6.55
2022-09-06T08:41:25.305Z,6.28
2022-09-06T08:46:53.989Z,6.03
2022-09-06T08:49:22.861Z,3.97
2022-09-06T08:52:26.901Z,7.25
2022-09-06T08:55:04.145Z,4.63
2022-09-06T08:57:46.968Z,7.78
2022-09-06T09:00:17.226Z,6.70
2022-09-06T09:02:48.191Z,4.43
2022-09-06T09:05:26.729Z,6.47
2022-09-06T09:08:05.539Z,8.20
2022-09-06T09:10:41.988Z,6.22
2022-09-06T09:13:21.859Z,4.13
2022-09-06T09:15:51.709Z,11.23
2022-09-06T09:18:24.635Z,6.18
2022-09-06T09:20:53.459Z,8.52
2022-09-06T09:23:21.912Z,7.07
2022-09-06T09:25:53.905Z,7.53
2022-09-06T09:28:25.087Z,5.82
2022-09-06T09:30:56.807Z,4.95
2022-09-06T09:33:29.051Z,9.18
2022-09-06T09:35:59.588Z,11.13
2022-09-06T09:38:30.859Z,5.97
2022-09-06T09:41:02.745Z,9.02
2022-09-06T09:43:32.722Z,8.20
2022-09-06T09:46:30.384Z,7.63
2022-09-06T09:49:05.703Z,8.68
2022-09-06T09:51:39.703Z,8.85
2022-09-06T09:54:09.994Z,7.38
2022-09-06T09:56:45.382Z,8.63
2022-09-06T09:59:23.496Z,5.00
2022-09-06T10:01:55.818Z,8.75
2022-09-06T10:04:47.473Z,8.57
2022-09-06T10:07:17.661Z,8.27
2022-09-06T10:09:48.767Z,8.65
2022-09-06T10:12:19.887Z,7.72
2022-09-06T10:14:50.101Z,8.68
2022-09-06T10:17:30.856Z,9.82
2022-09-06T10:20:03.471Z,11.23
2022-09-06T10:22:33.196Z,7.28
2022-09-06T10:25:45.102Z,8.60
2022-09-06T10:28:30.251Z,8.15
2022-09-06T10:31:24.737Z,9.63
2022-09-06T10:34:09.913Z,12.70
2022-09-06T10:36:41.603Z,12.23
2022-09-06T10:39:33.766Z,8.73
2022-09-06T10:42:11.999Z,15.07
2022-09-06T10:45:03.503Z,10.73
2022-09-06T10:47:39.045Z,14.98
2022-09-06T10:50:09.514Z,12.60
2022-09-06T10:52:45.548Z,18.17
2022-09-06T10:55:18.067Z,18.55
2022-09-06T11:00:47.686Z,19.10
2022-09-06T11:06:24.295Z,11.75
2022-09-06T11:09:03.514Z,7.78
2022-09-06T11:11:37.718Z,8.70
2022-09-06T11:14:13.427Z,7.60
2022-09-06T11:16:48.557Z,10.75
2022-09-06T11:19:23.146Z,7.65
2022-09-06T11:22:21.079Z,7.18
2022-09-06T11:25:22.644Z,8.23
2022-09-06T11:27:57.964Z,55.03
2022-09-06T11:30:28.413Z,11.98
2022-09-06T11:33:11.265Z,10.25
2022-09-06T11:35:42.356Z,11.10
2022-09-06T11:38:22.772Z,10.25
2022-09-06T11:40:59.096Z,9.65
2022-09-06T11:43:48.628Z,5.22
2022-09-06T11:46:53.272Z,7.78
2022-09-06T11:49:33.098Z,6.88
2022-09-06T11:52:01.873Z,8.00
2022-09-06T11:54:44.165Z,9.57
2022-09-06T11:57:18.142Z,7.32
2022-09-06T12:00:01.122Z,4.70
2022-09-06T12:02:47.480Z,4.95
2022-09-06T12:05:23.552Z,6.47
2022-09-06T12:08:28.297Z,5.72
2022-09-06T12:11:22.983Z,2.70
2022-09-06T12:14:03.325Z,7.63
2022-09-06T12:17:14.299Z,5.85
2022-09-06T12:19:47.735Z,6.47
2022-09-06T12:22:54.448Z,3.92
2022-09-06T12:25:54.969Z,7.20
2022-09-06T12:28:32.826Z,6.03
2022-09-06T12:31:03.216Z,3.27
2022-09-06T12:33:33.869Z,3.70
2022-09-06T12:36:15.726Z,7.07
2022-09-06T12:38:56.288Z,4.72
2022-09-06T12:41:25.540Z,3.83
2022-09-06T12:43:55.861Z,3.90
2022-09-06T12:46:26.864Z,3.72
2022-09-06T12:49:09.242Z,3.95
2022-09-06T12:51:39.093Z,5.22
2022-09-06T12:54:19.703Z,5.22
2022-09-06T12:56:48.045Z,8.43
2022-09-06T12:59:19.514Z,3.42
2022-09-06T13:02:00.593Z,5.22
2022-09-06T13:04:35.646Z,5.13
2022-09-06T13:07:05.435Z,5.53
2022-09-06T13:09:34.776Z,4.93
2022-09-06T13:12:07.965Z,3.60
2022-09-06T13:14:37.084Z,6.20
2022-09-06T13:17:07.169Z,4.13
2022-09-06T13:19:37.750Z,3.88
2022-09-06T13:22:08.649Z,10.25
2022-09-06T13:24:47.168Z,4.47
2022-09-06T13:27:26.476Z,4.85
2022-09-06T13:29:59.336Z,3.42
2022-09-06T13:32:29.965Z,4.25
2022-09-06T13:35:00.237Z,3.70
2022-09-06T13:37:31.221Z,4.95
2022-09-06T13:40:00.016Z,4.57
2022-09-06T13:42:35.699Z,2.38
2022-09-06T13:45:26.118Z,3.63
2022-09-06T13:48:07.931Z,3.95
2022-09-06T13:50:44.720Z,3.75
2022-09-06T13:53:20.792Z,2.92
2022-09-06T13:55:49.061Z,2.80
2022-09-06T13:58:17.305Z,4.50
2022-09-06T14:00:46.962Z,2.53
2022-09-06T14:03:23.424Z,3.17
2022-09-06T14:05:54.473Z,8.45
2022-09-06T14:08:22.897Z,2.72
2022-09-06T14:10:52.321Z,4.70
2022-09-06T14:13:21.653Z,2.13
2022-09-06T14:15:51.220Z,4.13
2022-09-06T14:18:21.058Z,4.57
2022-09-06T14:20:54.049Z,2.78
2022-09-06T14:23:23.414Z,4.20
2022-09-06T14:25:56.228Z,2.95
2022-09-06T14:28:24.827Z,2.45
2022-09-06T14:30:55.179Z,1.70
2022-09-06T14:33:25.216Z,2.65
2022-09-06T14:35:53.524Z,2.80
2022-09-06T14:38:23.137Z,2.05
2022-09-06T14:40:51.517Z,1.70
2022-09-06T14:43:19.893Z,2.50
2022-09-06T14:45:48.311Z,3.92
2022-09-06T14:48:16.718Z,2.35
2022-09-06T14:50:46.431Z,2.97
2022-09-06T14:53:38.827Z,3.67
2022-09-06T14:56:06.313Z,2.05
2022-09-06T14:58:35.169Z,2.05
2022-09-06T15:01:14.853Z,2.95
2022-09-06T15:03:46.340Z,3.67
2022-09-06T15:06:17.324Z,3.85
2022-09-06T15:08:46.125Z,2.33
2022-09-06T15:11:14.840Z,3.63
2022-09-06T15:13:43.429Z,3.72
2022-09-06T15:16:12.426Z,8.80
2022-09-06T15:18:40.915Z,4.05
2022-09-06T15:21:13.593Z,2.70
2022-09-06T15:23:44.220Z,4.90
2022-09-06T15:26:14.165Z,4.93
2022-09-06T15:28:44.532Z,6.78
2022-09-06T15:31:15.729Z,4.85
2022-09-06T15:33:44.616Z,4.78
2022-09-06T15:36:13.993Z,7.47
2022-09-06T15:38:45.519Z,5.78
2022-09-06T15:41:15.570Z,3.72
2022-09-06T15:43:47.082Z,5.93
2022-09-06T15:46:16.627Z,3.90
2022-09-06T15:48:47.720Z,8.23
2022-09-06T15:51:17.726Z,6.80
2022-09-06T15:53:47.849Z,6.82
2022-09-06T15:56:18.292Z,5.85
2022-09-06T15:58:47.711Z,9.77
2022-09-06T16:01:21.164Z,8.35
2022-09-06T16:03:52.996Z,10.90
2022-09-06T16:09:00.563Z,11.88
2022-09-06T16:11:30.860Z,11.55
2022-09-06T16:13:59.705Z,12.48
2022-09-06T16:16:29.446Z,9.85
2022-09-06T16:18:59.599Z,19.13
2022-09-06T16:21:30.558Z,14.57
2022-09-06T16:24:02.155Z,15.85
2022-09-06T16:26:33.392Z,11.23
2022-09-06T16:29:02.707Z,12.75
2022-09-06T16:31:31.172Z,15.13
2022-09-06T16:33:59.607Z,14.45
2022-09-06T16:36:29.496Z,17.60
2022-09-06T16:38:59.384Z,16.77
2022-09-06T16:41:33.286Z,18.38
2022-09-06T16:44:01.713Z,19.25
2022-09-06T16:46:30.160Z,22.55
2022-09-06T16:49:01.131Z,22.77
2022-09-06T16:51:32.082Z,18.38
2022-09-06T16:54:02.858Z,21.10
2022-09-06T16:56:34.879Z,17.95
2022-09-06T16:59:05.678Z,23.10
2022-09-06T17:01:35.986Z,20.00
2022-09-06T17:04:05.895Z,18.90
2022-09-06T17:06:38.313Z,15.27
2022-09-06T17:09:08.138Z,18.17
2022-09-06T17:11:37.831Z,14.88
2022-09-06T17:14:06.401Z,17.77
2022-09-06T17:16:52.702Z,16.90
2022-09-06T17:19:21.290Z,15.23
2022-09-06T17:21:49.687Z,20.88
2022-09-06T17:24:21.943Z,32.15
2022-09-06T17:26:50.298Z,25.08
2022-09-06T17:29:18.713Z,23.73
2022-09-06T17:31:47.949Z,12.30
2022-09-06T17:34:16.753Z,14.57
2022-09-06T17:36:45.276Z,13.43
2022-09-06T17:39:17.587Z,16.50
2022-09-06T17:41:50.052Z,16.52
2022-09-06T17:44:22.648Z,12.38
2022-09-06T17:47:11.377Z,13.60
2022-09-06T17:49:39.459Z,12.38
2022-09-06T17:52:07.949Z,15.23
2022-09-06T17:54:36.322Z,12.45
2022-09-06T17:57:06.338Z,14.80
2022-09-06T17:59:35.996Z,15.50
2022-09-06T18:02:05.665Z,22.33
2022-09-06T18:04:34.222Z,13.48
2022-09-06T18:07:04.666Z,21.60
2022-09-06T18:09:33.077Z,14.30
2022-09-06T18:12:02.060Z,14.68
2022-09-06T18:14:31.920Z,16.48
2022-09-06T18:17:00.516Z,16.13
2022-09-06T18:19:29.068Z,16.58
2022-09-06T18:21:57.902Z,17.20
2022-09-06T18:24:26.304Z,15.75
2022-09-06T18:26:55.725Z,17.23
2022-09-06T18:29:24.211Z,14.32
2022-09-06T18:31:55.089Z,21.88
2022-09-06T18:34:23.710Z,18.67
2022-09-06T18:36:52.483Z,14.95
2022-09-06T18:39:20.873Z,14.38
2022-09-06T18:42:01.610Z,16.50
2022-09-06T18:44:32.313Z,18.30
2022-09-06T18:47:05.727Z,18.02
2022-09-06T18:49:35.054Z,25.27
2022-09-06T18:52:04.172Z,13.60
2022-09-06T18:54:33.542Z,15.68
2022-09-06T18:57:01.909Z,15.93
2022-09-06T18:59:30.794Z,19.75
2022-09-06T19:01:59.371Z,11.82
2022-09-06T19:04:29.656Z,14.77
2022-09-06T19:06:58.046Z,13.05
2022-09-06T19:09:26.345Z,11.18
2022-09-06T19:11:54.706Z,12.30
2022-09-06T19:14:23.367Z,11.65
2022-09-06T19:16:53.886Z,18.10
2022-09-06T19:19:23.298Z,16.52
2022-09-06T19:21:53.146Z,16.95
2022-09-06T19:24:24.659Z,16.40
2022-09-06T19:26:55.328Z,16.48
2022-09-06T19:29:24.051Z,16.23
2022-09-06T19:31:53.081Z,13.98
2022-09-06T19:34:22.183Z,15.88
2022-09-06T19:36:55.204Z,12.60
2022-09-06T19:39:31.230Z,17.10
2022-09-06T19:42:01.945Z,16.75
2022-09-06T19:44:30.394Z,14.60
2022-09-06T19:47:00.059Z,11.50
2022-09-06T19:49:29.595Z,19.50
2022-09-06T19:51:57.989Z,16.02
2022-09-06T19:54:28.648Z,17.58
2022-09-06T19:56:57.141Z,13.35
2022-09-06T19:59:25.510Z,10.55
2022-09-06T20:01:55.360Z,11.75
2022-09-06T20:04:24.000Z,15.18
2022-09-06T20:06:53.487Z,14.93
2022-09-06T20:09:21.941Z,10.90
2022-09-06T20:11:51.725Z,12.25
2022-09-06T20:14:20.313Z,8.70
2022-09-06T20:16:48.757Z,11.35
2022-09-06T20:19:17.196Z,13.65
2022-09-06T20:21:45.569Z,11.65
2022-09-06T20:24:14.965Z,11.50
2022-09-06T20:26:43.763Z,10.38
2022-09-06T20:29:14.194Z,11.88
2022-09-06T20:31:42.979Z,10.02
2022-09-06T20:34:13.112Z,12.75
2022-09-06T20:36:42.317Z,8.40
2022-09-06T20:39:10.873Z,10.25
2022-09-06T20:41:39.290Z,13.25
2022-09-06T20:44:07.649Z,11.18
2022-09-06T20:46:39.756Z,13.73
2022-09-06T20:49:09.109Z,10.82
2022-09-06T20:51:40.421Z,11.02
2022-09-06T20:54:08.832Z,15.77
2022-09-06T20:56:39.633Z,11.30
2022-09-06T20:59:09.869Z,12.13
2022-09-06T21:01:42.659Z,12.13
2022-09-06T21:04:12.497Z,11.45
2022-09-06T21:06:41.538Z,13.27
2022-09-06T21:09:13.380Z,7.00
2022-09-06T21:11:42.828Z,14.95
2022-09-06T21:14:11.513Z,9.05
2022-09-06T21:16:42.060Z,12.82
2022-09-06T21:19:12.156Z,10.80
2022-09-06T21:21:40.995Z,9.93
2022-09-06T21:24:11.742Z,15.20
2022-09-06T21:26:43.014Z,13.68
2022-09-06T21:29:12.755Z,10.80
2022-09-06T21:31:42.535Z,11.18
2022-09-06T21:34:16.887Z,10.88
2022-09-06T21:36:46.131Z,16.17
2022-09-06T21:39:14.937Z,7.32
2022-09-06T21:41:44.625Z,8.23
2022-09-06T21:44:13.851Z,10.73
2022-09-06T21:46:43.783Z,10.80
2022-09-06T21:49:14.279Z,11.38
2022-09-06T21:51:43.038Z,12.07
2022-09-06T21:54:11.479Z,14.02
2022-09-06T21:56:40.672Z,11.32
2022-09-06T21:59:11.021Z,13.85
2022-09-06T22:01:43.161Z,9.48
2022-09-06T22:04:15.269Z,16.67
2022-09-06T22:06:43.633Z,14.07
2022-09-06T22:09:13.239Z,12.70
2022-09-06T22:11:43.503Z,16.02
2022-09-06T22:14:14.822Z,10.70
2022-09-06T22:16:43.611Z,10.50
2022-09-06T22:19:12.357Z,11.98
2022-09-06T22:21:42.344Z,12.52
2022-09-06T22:24:12.730Z,13.00
2022-09-06T22:26:42.531Z,9.52
2022-09-06T22:29:13.606Z,11.18
2022-09-06T22:31:42.447Z,16.70
2022-09-06T22:34:11.971Z,14.77
2022-09-06T22:36:41.931Z,10.27
2022-09-06T22:39:10.888Z,9.65
2022-09-06T22:41:39.743Z,14.13
2022-09-06T22:44:08.384Z,9.00
2022-09-06T22:46:38.443Z,12.05
2022-09-06T22:49:07.150Z,9.18
2022-09-06T22:51:35.440Z,29.00
2022-09-06T22:54:05.833Z,16.13
2022-09-06T22:56:35.814Z,17.38
2022-09-06T22:59:04.690Z,13.70
2022-09-06T23:01:38.736Z,16.67
2022-09-06T23:04:07.661Z,8.18
2022-09-06T23:06:36.350Z,6.60
2022-09-06T23:09:06.336Z,5.38
2022-09-06T23:11:35.920Z,8.20
2022-09-06T23:14:05.035Z,8.25
2022-09-06T23:16:33.592Z,9.77
2022-09-06T23:19:01.958Z,10.05
2022-09-06T23:21:30.360Z,7.05
2022-09-06T23:23:58.763Z,7.65
2022-09-06T23:26:31.138Z,7.38
2022-09-06T23:29:00.242Z,6.45
2022-09-06T23:31:31.533Z,8.13
2022-09-06T23:34:01.576Z,5.03
2022-09-06T23:36:30.096Z,6.43
2022-09-06T23:38:58.737Z,9.23
2022-09-06T23:41:28.604Z,4.90
2022-09-06T23:43:57.575Z,6.18
2022-09-06T23:46:26.306Z,5.88
2022-09-06T23:48:54.717Z,4.68
2022-09-06T23:51:23.555Z,5.45
2022-09-06T23:53:52.325Z,8.73
2022-09-06T23:56:20.978Z,4.68
2022-09-06T23:58:50.776Z,4.28
